Time;durP1;ratioP1;P1;durP2;ratioP2;P2;SDS_P1;SDS_P2;PMS_P1;PMS_P2;Temp;Humidity;BMP_temperature;BMP_pressure;BME280_temperature;BME280_humidity;BME280_pressure;Samples;Min_cycle;Max_cycle;Signal;HPM_P1;HPM_P2
2022/01/30 00:01:15;;;;;;;4.03;3.30;;;0.30;78.00;;;-0.08;56.17;95418.81;5035623;28;20484;-60
2022/01/30 00:03:42;;;;;;;6.37;4.60;;;0.30;77.80;;;-0.08;56.91;95421.41;5037311;28;20577;-57
2022/01/30 00:06:10;;;;;;;4.37;3.97;;;0.30;77.90;;;-0.09;56.20;95422.28;5040170;28;20491;-60
2022/01/30 00:08:37;;;;;;;5.00;4.37;;;0.30;77.80;;;-0.10;56.81;95420.59;5036543;28;20452;-57
2022/01/30 00:11:12;;;;;;;6.73;4.57;;;0.30;77.70;;;-0.10;56.85;95419.75;5038508;28;20482;-60
2022/01/30 00:13:39;;;;;;;10.00;6.10;;;0.30;77.80;;;-0.11;56.68;95416.34;5042201;28;20436;-59
2022/01/30 00:16:09;;;;;;;11.80;5.20;;;0.30;77.70;;;-0.14;56.37;95408.72;5035234;28;20476;-60
2022/01/30 00:18:50;;;;;;;7.10;5.67;;;0.30;77.60;;;-0.15;56.07;95404.44;5037625;28;20828;-58
2022/01/30 00:21:30;;;;;;;10.63;5.67;;;0.30;77.60;;;-0.15;56.65;95394.09;5034528;28;20484;-58
2022/01/30 00:24:02;;;;;;;11.50;6.03;;;0.30;77.70;;;-0.16;56.71;95395.00;5036443;28;20755;-59
2022/01/30 00:26:32;;;;;;;14.70;7.67;;;0.20;77.60;;;-0.17;56.33;95395.91;5036539;28;20501;-57
2022/01/30 00:28:59;;;;;;;9.77;6.40;;;0.20;77.70;;;-0.17;56.86;95379.53;5040936;28;20508;-57
2022/01/30 00:31:27;;;;;;;12.17;7.00;;;0.20;77.80;;;-0.20;56.54;95372.78;5037406;28;20507;-57
2022/01/30 00:33:56;;;;;;;13.57;7.23;;;0.20;77.90;;;-0.21;56.31;95378.84;5039416;28;20479;-59
2022/01/30 00:36:23;;;;;;;22.40;8.63;;;0.20;77.90;;;-0.23;56.74;95376.31;5038855;28;20484;-57
2022/01/30 00:38:51;;;;;;;13.13;7.83;;;0.20;78.00;;;-0.24;56.25;95378.97;5036958;28;20464;-60
2022/01/30 00:41:18;;;;;;;11.37;6.33;;;0.20;78.00;;;-0.28;56.91;95382.56;5040319;28;20480;-61
2022/01/30 00:43:45;;;;;;;12.57;6.60;;;0.10;77.80;;;-0.32;56.63;95383.59;5034163;28;20942;-58
2022/01/30 00:46:12;;;;;;;7.10;5.17;;;0.10;77.90;;;-0.41;56.73;95372.72;5033746;28;20514;-57
2022/01/30 00:48:40;;;;;;;9.97;5.90;;;0.00;77.80;;;-0.47;56.64;95372.94;5033438;28;20460;-59
2022/01/30 00:51:09;;;;;;;10.93;4.53;;;0.00;78.10;;;-0.52;56.59;95372.31;5036204;28;20464;-58
2022/01/30 00:53:36;;;;;;;10.27;5.23;;;-0.10;78.00;;;-0.58;56.57;95370.78;5038324;28;20456;-58
2022/01/30 00:56:04;;;;;;;8.03;5.07;;;-0.20;77.90;;;-0.68;56.51;95361.75;5041526;28;20491;-59
2022/01/30 00:58:31;;;;;;;7.33;4.70;;;-0.20;78.10;;;-0.77;57.17;95360.34;5040578;28;20451;-61
2022/01/30 01:00:59;;;;;;;7.67;5.07;;;-0.30;78.30;;;-0.85;56.68;95357.22;5044390;28;20482;-58
2022/01/30 01:03:26;;;;;;;9.30;4.43;;;-0.40;78.80;;;-0.90;57.71;95351.38;5030667;28;20540;-59
2022/01/30 01:05:53;;;;;;;7.00;4.80;;;-0.40;78.90;;;-0.94;58.07;95342.91;5034484;28;20496;-60
2022/01/30 01:08:31;;;;;;;6.63;4.23;;;-0.50;78.80;;;-0.95;57.73;95343.81;5037105;28;20568;-57
2022/01/30 01:11:10;;;;;;;8.50;4.13;;;-0.50;79.90;;;-0.93;58.13;95333.41;5035188;28;21082;-57
2022/01/30 01:13:57;;;;;;;6.00;4.47;;;-0.50;79.90;;;-0.91;57.96;95323.88;5038011;28;20968;-58
2022/01/30 01:24:42;;;;;;;5.23;4.30;;;-0.40;79.80;;;-0.81;57.30;95312.28;5038225;28;20458;-57
2022/01/30 01:27:10;;;;;;;4.77;3.57;;;-0.40;79.00;;;-0.82;57.68;95309.75;5042909;28;20499;-58
2022/01/30 01:29:38;;;;;;;8.80;3.97;;;-0.40;79.00;;;-0.84;57.19;95302.06;5037448;28;20462;-58
2022/01/30 01:32:06;;;;;;;5.80;3.90;;;-0.40;79.00;;;-0.84;57.44;95293.50;5034996;28;20471;-57
2022/01/30 01:34:35;;;;;;;4.20;3.80;;;-0.40;79.00;;;-0.85;57.07;95294.38;5039437;28;20507;-58
2022/01/30 01:37:03;;;;;;;5.77;3.80;;;-0.40;79.00;;;-0.87;57.04;95285.88;5037074;28;20471;-59
2022/01/30 01:39:30;;;;;;;5.23;3.60;;;-0.40;78.90;;;-0.93;57.11;95284.34;5038020;28;20529;-60
2022/01/30 01:41:59;;;;;;;4.07;3.67;;;-0.50;78.80;;;-0.95;57.54;95273.25;5036886;28;21044;-57
2022/01/30 01:44:34;;;;;;;6.03;4.10;;;-0.50;78.90;;;-0.97;57.42;95269.91;5037831;28;20505;-57
2022/01/30 01:47:01;;;;;;;3.90;3.20;;;-0.50;78.80;;;-1.02;57.41;95264.06;5033885;28;20499;-58
2022/01/30 01:49:31;;;;;;;4.03;3.63;;;-0.60;78.80;;;-1.06;57.59;95278.84;5039944;28;20471;-59
2022/01/30 01:52:18;;;;;;;5.50;3.93;;;-0.60;79.30;;;-1.08;57.79;95267.75;5030847;28;20568;-57
2022/01/30 01:54:46;;;;;;;5.03;4.40;;;-0.60;80.00;;;-1.08;58.23;95266.00;5038400;28;20452;-60
2022/01/30 01:57:15;;;;;;;7.17;4.27;;;-0.60;80.60;;;-1.05;58.07;95259.03;5035375;28;20492;-58
2022/01/30 01:59:42;;;;;;;6.23;4.10;;;-0.60;80.90;;;-1.05;58.08;95257.31;5033851;28;20441;-60
2022/01/30 02:02:10;;;;;;;10.23;5.00;;;-0.60;80.50;;;-1.05;58.38;95254.72;5040369;28;20471;-58
2022/01/30 02:04:40;;;;;;;6.80;4.07;;;-0.60;81.00;;;-1.04;58.48;95255.56;5034278;28;20461;-58
2022/01/30 02:07:34;;;;;;;7.93;4.40;;;-0.60;81.10;;;-1.02;57.96;95253.75;5038992;28;20496;-58
2022/01/30 02:10:04;;;;;;;5.13;3.67;;;-0.60;80.60;;;-1.01;58.18;95263.19;5037876;28;20444;-60
2022/01/30 02:12:39;;;;;;;4.40;3.47;;;-0.60;80.60;;;-1.00;57.92;95259.72;5040494;28;20452;-58
2022/01/30 02:15:29;;;;;;;7.77;3.93;;;-0.50;80.30;;;-0.99;57.87;95258.78;5042547;28;20439;-60
2022/01/30 02:24:03;;;;;;;3.47;3.13;;;-0.50;79.60;;;-0.95;57.80;95248.28;5027906;28;20995;-57
2022/01/30 02:26:37;;;;;;;2.27;2.17;;;-0.50;79.20;;;-0.96;57.49;95238.88;5034476;28;20502;-57
2022/01/30 02:29:04;;;;;;;6.30;3.40;;;-0.50;78.80;;;-0.96;57.37;95233.72;5034097;28;20444;-59
2022/01/30 02:31:35;;;;;;;4.83;3.20;;;-0.50;78.80;;;-0.98;57.29;95225.16;5036553;28;20485;-60
2022/01/30 02:34:02;;;;;;;5.30;3.30;;;-0.50;78.80;;;-0.98;57.65;95222.59;5034787;28;20445;-59
2022/01/30 02:36:30;;;;;;;5.47;3.03;;;-0.60;78.80;;;-0.97;57.75;95226.03;5041297;28;20485;-57
2022/01/30 02:39:00;;;;;;;2.50;2.30;;;-0.50;78.80;;;-0.97;57.34;95213.13;5038987;28;20453;-59
2022/01/30 02:41:27;;;;;;;3.60;3.13;;;-0.60;78.80;;;-0.96;57.43;95199.28;5038161;28;20487;-60
2022/01/30 02:44:07;;;;;;;2.50;2.40;;;-0.50;78.80;;;-0.95;57.01;95195.81;5035196;28;20931;-60
2022/01/30 02:46:39;;;;;;;8.50;2.83;;;-0.60;78.70;;;-0.99;57.26;95204.56;5041167;28;20495;-60
2022/01/30 02:49:25;;;;;;;4.90;2.90;;;-0.60;78.80;;;-0.98;57.21;95196.75;5041947;28;20456;-60
2022/01/30 02:51:56;;;;;;;5.30;3.07;;;-0.60;78.80;;;-0.98;57.44;95193.34;5039193;28;20484;-60
2022/01/30 02:54:25;;;;;;;5.60;3.27;;;-0.50;79.20;;;-0.96;57.17;95196.69;5039278;28;20502;-60
2022/01/30 02:56:52;;;;;;;3.90;3.60;;;-0.50;79.10;;;-0.95;57.71;95185.47;5041828;28;20509;-59
2022/01/30 02:59:20;;;;;;;4.73;3.40;;;-0.50;79.50;;;-0.95;57.45;95182.91;5039034;28;20858;-58
2022/01/30 03:01:47;;;;;;;4.20;3.07;;;-0.50;79.40;;;-0.96;57.54;95187.25;5038145;28;20831;-57
2022/01/30 03:04:14;;;;;;;6.10;3.40;;;-0.50;79.50;;;-0.96;57.45;95179.50;5043633;28;20456;-59
2022/01/30 03:06:42;;;;;;;6.10;3.90;;;-0.50;79.30;;;-0.95;57.84;95183.72;5038955;28;20507;-57
2022/01/30 03:09:10;;;;;;;3.77;3.10;;;-0.50;79.60;;;-0.93;57.66;95173.34;5042562;28;20869;-59
2022/01/30 03:11:38;;;;;;;4.13;3.17;;;-0.50;79.70;;;-0.92;57.63;95175.88;5039801;28;20507;-60
2022/01/30 03:14:06;;;;;;;11.93;3.30;;;-0.50;79.90;;;-0.91;57.68;95195.63;5040383;28;20993;-60
2022/01/30 03:16:33;;;;;;;8.43;3.40;;;-0.50;79.70;;;-0.93;58.03;95194.84;5036903;28;20467;-59
2022/01/30 03:19:01;;;;;;;5.33;3.07;;;-0.50;79.80;;;-0.93;57.65;95194.84;5042904;28;20460;-57
2022/01/30 03:21:29;;;;;;;3.10;2.90;;;-0.50;79.70;;;-0.93;57.86;95188.84;5042098;28;20467;-57
2022/01/30 03:23:56;;;;;;;3.60;3.00;;;-0.50;79.60;;;-0.93;57.65;95189.69;5038228;28;20449;-57
2022/01/30 03:26:23;;;;;;;3.60;3.40;;;-0.50;79.80;;;-0.91;57.42;95176.72;5034946;28;20490;-56
2022/01/30 03:28:56;;;;;;;3.30;2.50;;;-0.50;79.90;;;-0.89;57.59;95174.91;5043338;28;20448;-57
2022/01/30 03:31:23;;;;;;;3.43;2.80;;;-0.40;80.00;;;-0.85;58.06;95185.94;5037895;28;20826;-58
2022/01/30 03:33:51;;;;;;;4.13;3.73;;;-0.40;80.00;;;-0.84;57.75;95187.63;5041502;28;20519;-57
2022/01/30 03:36:18;;;;;;;4.03;3.00;;;-0.40;80.00;;;-0.84;58.07;95180.72;5040099;28;20480;-56
2022/01/30 03:38:45;;;;;;;4.63;3.57;;;-0.40;80.20;;;-0.82;58.02;95189.25;5039238;28;20464;-58
2022/01/30 03:41:12;;;;;;;3.37;3.17;;;-0.40;80.10;;;-0.80;57.62;95192.59;5037034;28;20506;-57
2022/01/30 03:43:40;;;;;;;3.67;3.07;;;-0.40;80.00;;;-0.77;57.71;95207.13;5035364;28;20437;-58
2022/01/30 03:46:08;;;;;;;3.60;2.97;;;-0.40;80.80;;;-0.76;57.83;95191.59;5040477;28;21361;-56
2022/01/30 03:48:35;;;;;;;6.43;4.47;;;-0.40;79.80;;;-0.76;57.56;95196.75;5038852;28;20460;-57
2022/01/30 03:51:03;;;;;;;4.90;3.83;;;-0.30;79.70;;;-0.75;57.79;95192.41;5037742;28;20493;-57
2022/01/30 03:53:31;;;;;;;3.80;2.93;;;-0.30;79.50;;;-0.76;57.29;95190.72;5037507;28;20451;-60
2022/01/30 03:55:58;;;;;;;4.17;3.70;;;-0.30;79.10;;;-0.77;57.51;95194.22;5041248;28;20934;-57
2022/01/30 03:58:25;;;;;;;3.67;3.37;;;-0.30;79.40;;;-0.78;57.44;95184.78;5036334;28;20460;-59
2022/01/30 04:00:53;;;;;;;4.60;4.10;;;-0.30;79.20;;;-0.78;57.25;95175.28;5038902;28;20562;-59
2022/01/30 04:03:21;;;;;;;4.30;3.90;;;-0.30;79.00;;;-0.79;57.59;95173.63;5038435;28;20459;-57
2022/01/30 04:05:49;;;;;;;23.57;3.93;;;-0.40;78.90;;;-0.79;57.40;95173.63;5039413;28;20919;-59
2022/01/30 04:08:16;;;;;;;6.00;3.40;;;-0.30;79.00;;;-0.80;57.52;95163.38;5038472;28;20531;-57
2022/01/30 04:10:45;;;;;;;3.77;3.23;;;-0.40;79.00;;;-0.82;57.39;95166.00;5036076;28;20868;-57
2022/01/30 04:13:12;;;;;;;3.83;3.53;;;-0.40;79.00;;;-0.85;57.31;95165.28;5044172;28;20448;-61
2022/01/30 04:15:40;;;;;;;4.77;4.00;;;-0.40;78.90;;;-0.93;57.25;95161.28;5041237;28;20483;-60
2022/01/30 04:18:08;;;;;;;6.00;4.50;;;-0.50;78.80;;;-1.03;57.44;95147.06;5036091;28;20556;-60
2022/01/30 04:20:38;;;;;;;4.50;3.80;;;-0.50;78.80;;;-1.09;57.26;95143.00;5037217;28;20487;-58
2022/01/30 04:23:05;;;;;;;6.73;5.33;;;-0.60;78.80;;;-1.15;57.29;95129.50;5038307;28;20452;-59
2022/01/30 04:25:32;;;;;;;7.00;5.43;;;-0.70;79.30;;;-1.19;57.96;95126.22;5038703;28;20532;-58
2022/01/30 04:28:01;;;;;;;5.60;4.27;;;-0.70;79.80;;;-1.21;57.79;95112.53;5038591;28;20488;-60
2022/01/30 04:30:28;;;;;;;4.53;4.13;;;-0.80;80.00;;;-1.23;57.78;95110.94;5034853;28;20472;-61
2022/01/30 04:32:57;;;;;;;7.40;5.50;;;-0.80;80.20;;;-1.25;58.16;95098.09;5034709;28;20961;-58
2022/01/30 04:35:27;;;;;;;9.13;5.23;;;-0.80;80.30;;;-1.25;57.68;95095.50;5037454;28;20448;-60
2022/01/30 04:38:04;;;;;;;10.20;5.70;;;-0.80;80.40;;;-1.27;57.97;95099.88;5039902;28;20476;-60
2022/01/30 04:40:58;;;;;;;7.67;5.00;;;-0.80;80.60;;;-1.28;58.41;95104.19;5038514;28;20472;-58
2022/01/30 04:57:46;;;;;;;5.00;4.17;;;-0.80;80.40;;;-1.25;58.06;95129.06;4912118;28;20538;-59
2022/01/30 05:00:28;;;;;;;4.37;3.73;;;-0.80;80.50;;;-1.26;58.38;95120.44;5012352;28;20444;-60
2022/01/30 05:03:04;;;;;;;3.93;3.53;;;-0.80;81.50;;;-1.24;58.16;95111.81;5034398;28;20455;-60
2022/01/30 05:05:46;;;;;;;6.50;4.80;;;-0.80;80.90;;;-1.21;58.48;95097.03;5035436;28;20998;-59
2022/01/30 05:08:14;;;;;;;7.60;4.67;;;-0.80;81.10;;;-1.14;58.17;95095.06;5041851;28;20555;-60
2022/01/30 05:10:43;;;;;;;5.20;3.90;;;-0.70;81.30;;;-1.10;58.60;95089.72;5038571;28;20476;-61
2022/01/30 05:13:16;;;;;;;8.13;3.90;;;-0.70;81.40;;;-1.05;58.48;95068.00;5037420;28;20585;-58
2022/01/30 05:15:44;;;;;;;5.97;4.20;;;-0.60;81.20;;;-1.03;58.16;95058.47;5036157;28;20495;-59
2022/01/30 05:18:12;;;;;;;6.87;4.20;;;-0.60;80.80;;;-1.05;58.01;95055.97;5036474;28;20477;-57
2022/01/30 05:20:40;;;;;;;4.00;3.57;;;-0.60;80.60;;;-1.00;58.12;95063.50;5035961;28;20933;-59
2022/01/30 05:23:08;;;;;;;9.73;6.23;;;-0.60;80.90;;;-0.95;57.97;95041.75;5036337;28;20820;-59
2022/01/30 05:25:37;;;;;;;11.47;6.97;;;-0.50;80.60;;;-0.92;57.86;95039.03;5034401;28;21047;-57
2022/01/30 05:28:08;;;;;;;6.87;5.40;;;-0.50;80.10;;;-0.95;57.91;95028.84;5040484;28;21026;-60
2022/01/30 05:30:37;;;;;;;10.13;6.67;;;-0.50;79.90;;;-0.94;57.72;95043.44;5034104;28;20576;-59
2022/01/30 05:33:05;;;;;;;12.10;6.10;;;-0.50;79.90;;;-0.91;57.58;95055.38;5037485;28;20456;-58
2022/01/30 05:35:34;;;;;;;7.40;5.40;;;-0.50;79.90;;;-0.87;57.83;95048.31;5035884;28;20488;-60
2022/01/30 05:38:01;;;;;;;8.97;6.47;;;-0.50;80.00;;;-0.83;58.08;95063.63;5037305;28;20456;-57
2022/01/30 05:40:29;;;;;;;12.57;6.63;;;-0.40;81.10;;;-0.80;57.93;95070.41;5034695;28;20468;-60
2022/01/30 05:42:57;;;;;;;11.93;6.83;;;-0.40;80.40;;;-0.77;57.98;95078.84;5035287;28;20556;-57
2022/01/30 05:45:31;;;;;;;7.87;5.33;;;-0.40;80.40;;;-0.73;58.10;95093.31;5032505;28;20511;-57
2022/01/30 05:48:03;;;;;;;6.67;5.27;;;-0.30;80.60;;;-0.67;58.19;95091.38;5040317;28;21035;-59
2022/01/30 05:50:31;;;;;;;5.80;5.20;;;-0.30;80.80;;;-0.61;58.36;95076.44;5034547;28;20612;-58
2022/01/30 05:52:58;;;;;;;9.17;5.70;;;-0.20;81.20;;;-0.52;57.95;95074.38;5031144;28;20452;-59
2022/01/30 05:55:26;;;;;;;12.67;5.30;;;-0.20;81.00;;;-0.46;57.69;95049.09;5037994;28;20481;-58
2022/01/30 05:57:53;;;;;;;9.20;4.90;;;-0.10;81.00;;;-0.35;58.13;95045.19;5034767;28;20508;-57
2022/01/30 06:00:20;;;;;;;6.80;5.03;;;0.00;80.90;;;-0.29;57.92;95055.25;5034166;28;21016;-60
2022/01/30 06:02:49;;;;;;;5.87;4.10;;;0.10;80.90;;;-0.21;57.88;95048.81;5035500;28;20455;-59
2022/01/30 06:05:18;;;;;;;5.77;4.90;;;0.20;80.60;;;-0.16;57.84;95030.50;5035181;28;20987;-60
2022/01/30 06:07:52;;;;;;;11.63;5.70;;;0.20;80.00;;;-0.15;57.55;95027.00;5039807;28;20523;-58
2022/01/30 06:10:20;;;;;;;9.67;7.10;;;0.20;79.50;;;-0.13;57.32;95025.19;5034417;28;20451;-61
2022/01/30 06:12:47;;;;;;;11.30;7.67;;;0.30;79.70;;;-0.09;57.45;95026.72;5033192;28;20469;-60
2022/01/30 06:15:15;;;;;;;11.83;7.90;;;0.30;79.60;;;-0.04;57.39;95024.75;5034437;28;20459;-58
2022/01/30 06:17:43;;;;;;;13.97;6.40;;;0.40;79.70;;;-0.01;57.66;95001.34;5036230;28;20451;-56
2022/01/30 06:20:12;;;;;;;18.83;7.47;;;0.40;79.70;;;0.03;57.01;94994.25;5034496;28;20452;-57
2022/01/30 06:22:39;;;;;;;18.63;8.83;;;0.40;79.70;;;0.07;56.85;94998.38;5036651;28;20825;-57
2022/01/30 06:25:08;;;;;;;11.23;7.40;;;0.40;79.70;;;0.14;57.42;95011.84;5035701;28;20535;-58
2022/01/30 06:27:35;;;;;;;14.30;7.33;;;0.50;79.80;;;0.18;57.51;95019.41;5034274;28;20484;-59
2022/01/30 06:30:05;;;;;;;10.93;5.93;;;0.60;79.90;;;0.25;57.06;95012.19;5036848;28;20459;-58
2022/01/30 06:32:32;;;;;;;12.43;6.40;;;0.60;79.90;;;0.32;57.04;94992.88;5038590;28;20459;-58
2022/01/30 06:34:59;;;;;;;14.60;6.33;;;0.70;80.00;;;0.38;56.85;94993.50;5040577;28;21007;-58
2022/01/30 06:37:28;;;;;;;18.23;8.20;;;0.70;79.50;;;0.43;58.05;95014.78;5032495;28;20476;-58
2022/01/30 06:39:56;;;;;;;9.90;6.10;;;0.80;80.10;;;0.46;57.89;95010.28;5031306;28;20452;-57
2022/01/30 06:42:23;;;;;;;8.73;5.57;;;0.80;80.10;;;0.51;57.03;95025.59;5036449;28;20999;-57
2022/01/30 06:44:50;;;;;;;12.57;6.30;;;0.90;80.10;;;0.54;56.71;95043.56;5033376;28;20541;-59
2022/01/30 06:47:18;;;;;;;8.70;6.43;;;0.90;79.30;;;0.56;56.25;95041.75;5033326;28;20488;-58
2022/01/30 06:49:45;;;;;;;13.20;6.87;;;0.90;78.50;;;0.60;57.44;95025.16;5032962;28;20453;-59
2022/01/30 06:52:12;;;;;;;25.53;6.90;;;1.00;79.90;;;0.65;56.60;95023.19;5031300;28;21039;-60
2022/01/30 06:54:41;;;;;;;11.93;6.47;;;1.00;79.20;;;0.70;55.72;95012.59;5032925;28;20820;-60
2022/01/30 06:57:08;;;;;;;16.10;7.67;;;1.10;77.90;;;0.74;56.01;94995.16;5034226;28;20472;-59
2022/01/30 06:59:36;;;;;;;13.27;6.80;;;1.10;77.60;;;0.74;54.99;94989.97;5036330;28;20477;-59
2022/01/30 07:02:05;;;;;;;11.23;6.57;;;1.10;76.40;;;0.82;54.99;95004.22;5035734;28;20580;-59
2022/01/30 07:04:33;;;;;;;14.80;9.33;;;1.20;76.90;;;0.86;54.96;95004.91;5035566;28;20499;-60
2022/01/30 07:07:03;;;;;;;13.03;7.20;;;1.20;76.40;;;0.92;56.19;94994.22;5033208;28;20492;-58
2022/01/30 07:09:31;;;;;;;14.70;7.40;;;1.30;76.80;;;1.02;56.00;94994.59;5033608;28;20610;-58
2022/01/30 07:12:00;;;;;;;25.60;15.33;;;1.30;76.70;;;1.15;55.02;94989.63;5033191;28;20503;-57
2022/01/30 07:14:27;;;;;;;11.83;8.60;;;1.50;76.40;;;1.27;54.76;94988.97;5038149;28;20460;-58
2022/01/30 07:16:54;;;;;;;7.90;6.53;;;1.60;76.10;;;1.39;55.67;94985.72;5034697;28;20530;-58
2022/01/30 07:19:22;;;;;;;8.90;5.70;;;1.70;76.20;;;1.53;54.62;94984.97;5040680;28;20460;-59
2022/01/30 07:21:49;;;;;;;13.93;5.90;;;1.80;75.60;;;1.83;55.31;94996.38;5039283;28;21022;-59
2022/01/30 07:24:16;;;;;;;9.23;5.10;;;2.10;76.10;;;2.29;54.50;95004.19;5041404;28;20461;-57
2022/01/30 07:26:43;;;;;;;10.43;5.57;;;2.50;75.60;;;2.79;53.47;95003.06;5036670;28;20478;-58
2022/01/30 07:29:12;;;;;;;15.30;6.33;;;2.90;75.30;;;3.17;53.43;95007.75;5039751;28;21045;-58
2022/01/30 07:31:39;;;;;;;10.87;6.40;;;3.30;73.90;;;3.33;52.60;95012.88;5037678;28;20488;-60
2022/01/30 07:34:07;;;;;;;8.40;5.97;;;3.50;72.80;;;3.35;50.64;95018.00;5038867;28;20468;-60
2022/01/30 07:36:35;;;;;;;11.27;6.70;;;3.70;69.80;;;3.35;51.24;95021.44;5039852;28;20504;-56
2022/01/30 07:39:05;;;;;;;10.03;6.17;;;3.70;69.20;;;3.34;50.58;95018.91;5037435;28;20831;-58
2022/01/30 07:41:32;;;;;;;13.67;7.50;;;3.70;69.00;;;3.31;50.63;95013.91;5041178;28;20482;-58
2022/01/30 07:44:01;;;;;;;11.97;7.47;;;3.60;67.90;;;3.31;51.33;95008.69;5036620;28;20485;-58
2022/01/30 07:46:29;;;;;;;10.80;6.97;;;3.60;68.80;;;3.35;50.84;95005.81;5034210;28;20484;-58
2022/01/30 07:48:57;;;;;;;15.07;9.47;;;3.60;68.80;;;3.51;50.85;94999.69;5039753;28;20534;-60
2022/01/30 07:51:24;;;;;;;19.20;8.27;;;3.80;68.60;;;3.79;51.15;95004.03;5044815;28;20483;-58
2022/01/30 07:53:51;;;;;;;16.00;8.27;;;4.00;68.90;;;4.20;49.82;94995.38;5036036;28;20503;-59
2022/01/30 07:56:19;;;;;;;20.83;6.90;;;4.30;67.90;;;4.42;49.94;94983.59;5038554;28;20479;-59
2022/01/30 07:58:46;;;;;;;23.77;6.30;;;4.60;67.20;;;4.63;49.07;94976.13;5040946;28;20444;-58
2022/01/30 08:01:13;;;;;;;20.60;6.27;;;4.90;66.50;;;5.19;48.51;94981.94;5036853;28;20563;-61
2022/01/30 08:03:42;;;;;;;15.00;7.50;;;5.30;65.70;;;6.11;47.58;94968.63;5038766;28;20522;-59
2022/01/30 08:06:09;;;;;;;17.43;7.77;;;6.10;64.90;;;7.31;46.17;94964.16;5042847;28;20507;-57
2022/01/30 08:08:36;;;;;;;16.00;7.37;;;7.10;63.30;;;8.38;44.53;94969.75;5039871;28;20496;-58
2022/01/30 08:11:04;;;;;;;12.50;7.30;;;8.00;61.30;;;9.01;43.98;94950.69;5035027;28;21016;-60
2022/01/30 08:13:31;;;;;;;12.10;7.10;;;8.80;59.50;;;9.53;42.46;94951.53;5036970;28;20475;-59
2022/01/30 08:15:58;;;;;;;17.73;6.93;;;9.40;57.20;;;10.27;40.78;94941.63;5037469;28;20482;-57
2022/01/30 08:18:26;;;;;;;17.27;7.27;;;10.20;54.00;;;10.82;40.23;94949.88;5040917;28;20453;-58
2022/01/30 08:20:55;;;;;;;22.57;7.47;;;10.70;52.00;;;11.00;39.86;94954.41;5039266;28;20865;-59
2022/01/30 08:23:23;;;;;;;18.90;7.83;;;11.00;51.40;;;11.13;39.82;94953.16;5040561;28;20793;-60
2022/01/30 08:25:51;;;;;;;15.53;7.17;;;11.20;51.50;;;11.20;38.99;94942.91;5040252;28;20822;-59
2022/01/30 08:28:18;;;;;;;25.53;7.27;;;11.30;49.50;;;11.53;39.30;94943.38;5037343;28;20495;-58
2022/01/30 08:30:45;;;;;;;26.47;8.17;;;11.70;49.60;;;12.17;38.90;94946.97;5034761;28;21011;-59
2022/01/30 08:33:15;;;;;;;21.73;8.40;;;12.10;49.80;;;12.90;36.31;94948.72;5036973;28;20464;-59
2022/01/30 08:35:43;;;;;;;19.00;9.67;;;12.80;47.00;;;13.55;36.15;94939.59;5042638;28;20544;-58
2022/01/30 08:38:15;;;;;;;18.30;8.60;;;13.40;47.10;;;14.15;34.94;94928.13;5034900;28;20453;-58
2022/01/30 08:40:42;;;;;;;15.37;9.20;;;13.90;44.10;;;14.75;34.80;94938.72;5042073;28;20487;-58
2022/01/30 08:43:09;;;;;;;21.23;9.63;;;14.50;44.60;;;15.27;34.53;94938.38;5037336;28;20512;-56
2022/01/30 08:45:37;;;;;;;20.03;11.33;;;15.00;44.50;;;15.72;34.75;94947.63;5036802;28;20554;-60
2022/01/30 08:48:05;;;;;;;34.23;16.77;;;15.30;45.20;;;16.08;33.76;94951.66;5037315;28;20481;-58
2022/01/30 08:50:32;;;;;;;22.33;12.50;;;15.60;43.90;;;16.27;34.28;94945.94;5040368;28;20546;-57
2022/01/30 08:52:59;;;;;;;14.03;10.00;;;15.90;43.60;;;16.45;33.68;94937.75;5037974;28;20449;-59
2022/01/30 08:55:29;;;;;;;15.73;9.33;;;16.10;43.10;;;16.56;33.27;94944.47;5039789;28;20476;-57
2022/01/30 08:57:57;;;;;;;14.10;8.20;;;16.30;42.10;;;16.71;32.54;94946.38;5034483;28;20498;-56
2022/01/30 09:00:24;;;;;;;17.90;8.00;;;16.40;40.60;;;16.69;32.48;94951.88;5037853;28;20449;-63
2022/01/30 09:02:51;;;;;;;9.20;6.07;;;16.40;40.60;;;16.46;32.43;94947.34;5037836;28;20456;-58
2022/01/30 09:05:21;;;;;;;10.53;6.37;;;16.30;40.50;;;16.21;33.71;94956.44;5035920;28;20452;-57
2022/01/30 09:07:48;;;;;;;10.43;5.83;;;16.10;41.40;;;15.88;33.79;94953.88;5038476;28;20824;-57
2022/01/30 09:10:16;;;;;;;8.47;5.50;;;15.90;41.90;;;15.38;33.75;94946.03;5038522;28;20452;-57
2022/01/30 09:12:44;;;;;;;8.00;5.63;;;15.40;41.40;;;14.86;34.55;94952.47;5039667;28;20456;-57
2022/01/30 09:15:14;;;;;;;6.90;5.50;;;15.00;42.00;;;14.33;35.25;94945.75;5040791;28;20448;-66
2022/01/30 09:17:42;;;;;;;16.20;5.87;;;14.50;42.40;;;13.81;34.72;94949.31;5037123;28;20634;-58
2022/01/30 09:20:10;;;;;;;12.77;5.07;;;14.10;42.30;;;13.37;35.88;94955.53;5038772;28;20535;-56
2022/01/30 09:22:37;;;;;;;13.43;4.53;;;13.60;43.20;;;13.04;36.34;94951.75;5031531;28;20468;-58
2022/01/30 09:25:07;;;;;;;10.50;5.10;;;13.20;43.70;;;13.06;35.97;94945.34;5032123;28;20508;-59
2022/01/30 09:27:35;;;;;;;11.37;5.07;;;13.10;43.40;;;13.45;35.62;94925.69;5033406;28;20449;-57
2022/01/30 09:30:04;;;;;;;10.17;6.20;;;13.30;43.60;;;13.91;34.91;94918.31;5039198;28;20545;-58
2022/01/30 09:32:32;;;;;;;73.07;30.10;;;13.60;43.00;;;14.36;33.88;94908.38;5036832;28;20464;-58
2022/01/30 09:34:59;;;;;;;25.20;12.87;;;13.90;41.70;;;14.79;33.57;94887.91;5039597;28;21032;-58
2022/01/30 09:37:26;;;;;;;15.67;6.50;;;14.30;41.70;;;15.21;32.38;94875.47;5037017;28;20473;-58
2022/01/30 09:39:54;;;;;;;17.93;7.00;;;14.70;40.00;;;15.61;31.45;94871.06;5035707;28;20522;-58
2022/01/30 09:42:24;;;;;;;14.10;6.90;;;15.10;38.70;;;15.87;32.12;94870.84;5040435;28;20467;-57
2022/01/30 09:44:51;;;;;;;16.90;6.50;;;15.40;39.80;;;16.13;30.55;94870.53;5039602;28;20452;-59
2022/01/30 09:47:20;;;;;;;12.00;6.47;;;15.70;38.20;;;16.42;31.66;94868.22;5040560;28;20506;-56
2022/01/30 09:49:49;;;;;;;8.63;6.90;;;15.90;39.80;;;16.71;31.60;94856.88;5031941;28;20480;-57
2022/01/30 09:52:16;;;;;;;14.00;7.30;;;16.20;39.50;;;16.99;30.73;94856.38;5032950;28;20792;-58
2022/01/30 09:54:44;;;;;;;14.70;7.57;;;16.50;38.80;;;17.24;29.61;94848.16;5040822;28;20452;-57
2022/01/30 09:57:12;;;;;;;12.60;7.37;;;16.70;36.70;;;17.39;30.30;94844.50;5040693;28;20491;-60
2022/01/30 09:59:40;;;;;;;30.43;16.87;;;16.90;37.60;;;17.48;29.35;94829.28;5037973;28;20448;-59
2022/01/30 10:02:08;;;;;;;35.20;16.17;;;17.00;36.30;;;17.43;30.42;94839.66;5035140;28;20468;-57
2022/01/30 10:04:38;;;;;;;26.00;14.27;;;17.00;37.30;;;17.36;29.99;94817.47;5036083;28;20455;-59
2022/01/30 10:07:11;;;;;;;30.07;15.97;;;16.90;36.80;;;17.27;29.43;94819.38;5037689;28;20481;-59
2022/01/30 10:09:45;;;;;;;32.70;15.63;;;16.90;36.30;;;17.33;30.22;94812.50;5039472;28;20517;-57
2022/01/30 10:12:16;;;;;;;33.70;15.90;;;16.90;37.00;;;17.44;29.61;94808.56;5039177;28;20874;-59
2022/01/30 10:14:54;;;;;;;35.77;16.67;;;17.00;36.90;;;17.55;29.61;94816.91;5037206;28;20957;-59
2022/01/30 10:17:33;;;;;;;40.73;17.83;;;17.20;37.20;;;17.77;28.79;94821.47;5037815;28;20521;-57
2022/01/30 10:20:13;;;;;;;36.37;19.47;;;17.30;37.40;;;17.94;29.82;94832.75;5035788;28;20448;-57
2022/01/30 10:22:49;;;;;;;34.87;16.47;;;17.50;36.80;;;18.00;26.39;94830.19;5038349;28;20489;-57
2022/01/30 10:25:21;;;;;;;25.10;14.73;;;17.60;32.60;;;17.80;26.26;94829.94;5038807;28;20436;-59
2022/01/30 10:27:49;;;;;;;32.23;13.77;;;17.50;32.30;;;17.70;28.23;94824.06;5039906;28;20509;-55
2022/01/30 10:30:21;;;;;;;40.10;16.03;;;17.40;34.10;;;17.72;28.49;94814.03;5038636;28;20487;-57
2022/01/30 10:32:56;;;;;;;29.60;16.40;;;17.30;34.70;;;17.85;28.26;94787.63;5036997;28;21019;-56
2022/01/30 10:35:26;;;;;;;32.23;15.43;;;17.40;34.80;;;17.91;27.78;94788.75;5033267;28;20447;-56
2022/01/30 10:37:54;;;;;;;32.50;17.40;;;17.50;34.80;;;17.99;27.64;94793.13;5032325;28;20445;-65
2022/01/30 10:40:34;;;;;;;27.87;14.50;;;17.60;34.60;;;17.96;28.08;94790.84;5033606;28;20452;-58
2022/01/30 10:43:02;;;;;;;45.63;17.30;;;17.50;35.10;;;17.76;28.92;94779.94;5035101;28;20460;-57
2022/01/30 10:45:30;;;;;;;30.50;16.57;;;17.50;35.50;;;17.51;28.35;94767.75;5034878;28;20518;-56
2022/01/30 10:48:11;;;;;;;37.40;16.93;;;17.40;34.30;;;17.43;27.61;94754.56;5035671;28;20471;-56
2022/01/30 10:50:42;;;;;;;39.43;16.00;;;17.30;34.70;;;17.53;28.71;94762.25;5036908;28;20554;-57
2022/01/30 10:53:17;;;;;;;34.00;16.03;;;17.30;35.70;;;17.61;27.72;94756.00;5037978;28;20440;-58
2022/01/30 10:55:45;;;;;;;45.53;15.57;;;17.40;34.80;;;17.48;27.91;94757.50;5045384;28;20592;-59